Time,TemperatureF,DewpointF,PressureIn,WindDirection,WindDirectionDegrees,WindSpeedMPH,WindSpeedGustMPH,Humidity,HourlyPrecipIn,Conditions,Clouds,dailyrainin,SoftwareType,DateUTC
2013-02-14 00:00:00,32.0,28.3,29.66,West,269,0.0,0.0,86,0.00,,,0.04,WeatherTracker,2013-02-14 05:00:00,
2013-02-14 00:05:00,32.2,28.5,29.66,West,269,0.0,0.0,86,0.00,,,0.00,WeatherTracker,2013-02-14 05:05:00,
2013-02-14 00:10:00,32.3,28.6,29.66,West,269,0.0,0.0,86,0.00,,,0.00,WeatherTracker,2013-02-14 05:10:00,
2013-02-14 00:15:00,32.4,28.4,29.66,West,269,0.0,0.0,85,0.00,,,0.00,WeatherTracker,2013-02-14 05:15:00,
2013-02-14 00:20:00,32.4,28.4,29.66,West,269,0.0,0.0,85,0.00,,,0.00,WeatherTracker,2013-02-14 05:20:00,
2013-02-14 00:25:00,32.3,28.0,29.66,West,269,0.0,0.0,84,0.00,,,0.00,WeatherTracker,2013-02-14 05:25:00,
2013-02-14 00:30:00,32.3,28.0,29.67,West,269,0.0,0.0,84,0.00,,,0.00,WeatherTracker,2013-02-14 05:30:00,
2013-02-14 00:35:00,32.2,27.9,29.67,West,269,0.0,0.0,84,0.00,,,0.00,WeatherTracker,2013-02-14 05:35:00,
2013-02-14 00:40:00,32.2,27.9,29.68,West,269,0.0,0.0,84,0.00,,,0.00,WeatherTracker,2013-02-14 05:40:00,
2013-02-14 00:45:00,32.1,28.1,29.68,West,269,0.0,0.0,85,0.00,,,0.00,WeatherTracker,2013-02-14 05:45:00,
2013-02-14 00:51:00,32.1,28.1,29.68,West,269,0.0,0.0,85,0.00,,,0.00,WeatherTracker,2013-02-14 05:51:00,
2013-02-14 00:56:00,32.1,28.4,29.67,West,269,0.0,0.0,86,0.00,,,0.00,WeatherTracker,2013-02-14 05:56:00,
2013-02-14 01:01:00,32.1,28.4,29.67,West,269,0.0,0.0,86,0.00,,,0.00,WeatherTracker,2013-02-14 06:01:00,
2013-02-14 01:06:00,32.0,28.3,29.66,West,269,0.0,0.0,86,0.00,,,0.00,WeatherTracker,2013-02-14 06:06:00,
2013-02-14 01:11:00,32.0,28.3,29.66,West,269,0.0,0.0,86,0.00,,,0.00,WeatherTracker,2013-02-14 06:11:00,
2013-02-14 01:16:00,31.9,28.2,29.66,West,269,0.0,0.0,86,0.00,,,0.00,WeatherTracker,2013-02-14 06:16:00,
2013-02-14 01:21:00,31.9,28.5,29.66,West,269,0.0,0.0,87,0.00,,,0.00,WeatherTracker,2013-02-14 06:21:00,
2013-02-14 01:26:00,31.9,28.5,29.66,West,269,0.0,0.0,87,0.00,,,0.00,WeatherTracker,2013-02-14 06:26:00,
2013-02-14 01:31:00,31.8,28.7,29.66,West,269,0.0,0.0,88,0.00,,,0.00,WeatherTracker,2013-02-14 06:31:00,
2013-02-14 01:36:00,31.8,28.7,29.66,West,269,0.0,0.0,88,0.00,,,0.00,WeatherTracker,2013-02-14 06:36:00,
2013-02-14 01:41:00,31.8,28.7,29.66,West,269,0.0,0.0,88,0.00,,,0.00,WeatherTracker,2013-02-14 06:41:00,
2013-02-14 01:46:00,31.8,28.7,29.65,West,269,0.0,0.0,88,0.00,,,0.00,WeatherTracker,2013-02-14 06:46:00,
2013-02-14 01:51:00,31.9,29.0,29.65,West,269,0.0,0.0,89,0.00,,,0.00,WeatherTracker,2013-02-14 06:51:00,
2013-02-14 01:56:00,32.0,29.1,29.65,West,277,3.0,0.0,89,0.00,,,0.00,WeatherTracker,2013-02-14 06:56:00,
2013-02-14 02:01:00,32.2,29.6,29.65,West,277,0.0,0.0,90,0.00,,,0.00,WeatherTracker,2013-02-14 07:01:00,
2013-02-14 02:06:00,32.2,29.6,29.65,West,277,0.0,0.0,90,0.00,,,0.00,WeatherTracker,2013-02-14 07:06:00,
2013-02-14 02:11:00,32.2,29.6,29.66,West,277,0.0,0.0,90,0.00,,,0.00,WeatherTracker,2013-02-14 07:11:00,
2013-02-14 02:16:00,32.2,29.6,29.66,West,277,0.0,0.0,90,0.00,,,0.00,WeatherTracker,2013-02-14 07:16:00,
2013-02-14 02:21:00,32.2,29.9,29.66,West,277,0.0,0.0,91,0.00,,,0.00,WeatherTracker,2013-02-14 07:21:00,
2013-02-14 02:26:00,32.2,29.9,29.66,West,277,0.0,0.0,91,0.00,,,0.00,WeatherTracker,2013-02-14 07:26:00,
2013-02-14 02:31:00,32.1,29.8,29.66,West,277,0.0,0.0,91,0.00,,,0.00,WeatherTracker,2013-02-14 07:31:00,
2013-02-14 02:36:00,32.1,29.8,29.66,West,277,0.0,0.0,91,0.00,,,0.00,WeatherTracker,2013-02-14 07:36:00,
2013-02-14 02:41:00,32.1,29.8,29.66,West,277,0.0,0.0,91,0.00,,,0.00,WeatherTracker,2013-02-14 07:41:00,
2013-02-14 02:46:00,32.0,29.9,29.66,West,277,0.0,0.0,92,0.00,,,0.00,WeatherTracker,2013-02-14 07:46:00,
2013-02-14 02:51:00,32.0,29.9,29.66,West,277,0.0,0.0,92,0.00,,,0.00,WeatherTracker,2013-02-14 07:51:00,
2013-02-14 02:56:00,31.9,29.8,29.66,West,277,0.0,0.0,92,0.00,,,0.00,WeatherTracker,2013-02-14 07:56:00,
2013-02-14 03:01:00,31.8,29.7,29.66,West,277,0.0,0.0,92,0.00,,,0.00,WeatherTracker,2013-02-14 08:01:00,
2013-02-14 03:06:00,31.7,29.6,29.66,West,277,0.0,0.0,92,0.00,,,0.00,WeatherTracker,2013-02-14 08:06:00,
2013-02-14 03:11:00,31.7,29.6,29.65,West,277,0.0,0.0,92,0.00,,,0.00,WeatherTracker,2013-02-14 08:11:00,
2013-02-14 03:17:00,31.7,29.6,29.65,West,277,0.0,0.0,92,0.00,,,0.00,WeatherTracker,2013-02-14 08:17:00,
2013-02-14 03:22:00,31.6,29.5,29.65,West,277,0.0,0.0,92,0.00,,,0.00,WeatherTracker,2013-02-14 08:22:00,
2013-02-14 03:27:00,31.5,29.4,29.65,West,277,0.0,0.0,92,0.00,,,0.00,WeatherTracker,2013-02-14 08:27:00,
2013-02-14 03:32:00,31.4,29.3,29.65,West,277,0.0,0.0,92,0.00,,,0.00,WeatherTracker,2013-02-14 08:32:00,
2013-02-14 03:37:00,31.3,29.3,29.65,West,277,0.0,0.0,92,0.00,,,0.00,WeatherTracker,2013-02-14 08:37:00,
2013-02-14 03:42:00,31.2,29.2,29.66,West,277,0.0,0.0,92,0.00,,,0.00,WeatherTracker,2013-02-14 08:42:00,
2013-02-14 03:47:00,31.1,29.1,29.67,West,277,0.0,0.0,92,0.00,,,0.00,WeatherTracker,2013-02-14 08:47:00,
2013-02-14 03:52:00,31.0,29.0,29.67,West,277,0.0,0.0,92,0.00,,,0.00,WeatherTracker,2013-02-14 08:52:00,
2013-02-14 03:57:00,30.9,28.9,29.68,West,277,0.0,0.0,92,0.00,,,0.00,WeatherTracker,2013-02-14 08:57:00,
2013-02-14 04:02:00,30.8,28.8,29.68,West,277,0.0,0.0,92,0.00,,,0.00,WeatherTracker,2013-02-14 09:02:00,
2013-02-14 04:07:00,30.7,28.7,29.68,West,277,0.0,0.0,92,0.00,,,0.00,WeatherTracker,2013-02-14 09:07:00,
2013-02-14 04:12:00,30.7,28.7,29.68,West,277,0.0,0.0,92,0.00,,,0.00,WeatherTracker,2013-02-14 09:12:00,
2013-02-14 04:17:00,30.6,28.0,29.68,West,277,0.0,0.0,90,0.00,,,0.00,WeatherTracker,2013-02-14 09:17:00,
2013-02-14 04:22:00,30.9,27.5,29.68,West,277,0.0,0.0,87,0.00,,,0.00,WeatherTracker,2013-02-14 09:22:00,
2013-02-14 04:27:00,31.0,27.0,29.68,West,277,0.0,0.0,85,0.00,,,0.00,WeatherTracker,2013-02-14 09:27:00,
2013-02-14 04:32:00,31.4,26.3,29.68,West,277,0.0,0.0,81,0.00,,,0.00,WeatherTracker,2013-02-14 09:32:00,
2013-02-14 04:37:00,31.5,26.1,29.68,West,277,1.0,0.0,80,0.00,,,0.00,WeatherTracker,2013-02-14 09:37:00,
2013-02-14 04:42:00,31.6,25.5,29.69,West,276,1.0,0.0,78,0.00,,,0.00,WeatherTracker,2013-02-14 09:42:00,
2013-02-14 04:47:00,31.7,25.3,29.69,West,275,0.0,0.0,77,0.00,,,0.00,WeatherTracker,2013-02-14 09:47:00,
2013-02-14 04:52:00,31.8,25.4,29.68,West,275,0.0,0.0,77,0.00,,,0.00,WeatherTracker,2013-02-14 09:52:00,
2013-02-14 04:57:00,31.9,25.2,29.68,West,281,0.0,0.0,76,0.00,,,0.00,WeatherTracker,2013-02-14 09:57:00,
2013-02-14 05:02:00,32.0,25.0,29.69,West,281,0.0,0.0,75,0.00,,,0.00,WeatherTracker,2013-02-14 10:02:00,
2013-02-14 05:07:00,32.2,24.9,29.69,NW,307,0.0,0.0,74,0.00,,,0.00,WeatherTracker,2013-02-14 10:07:00,
2013-02-14 05:12:00,32.4,25.1,29.69,West,262,0.0,0.0,74,0.00,,,0.00,WeatherTracker,2013-02-14 10:12:00,
2013-02-14 05:18:00,32.4,24.7,29.69,NW,319,1.0,0.0,73,0.00,,,0.00,WeatherTracker,2013-02-14 10:18:00,
2013-02-14 05:23:00,32.5,24.8,29.69,South,184,1.0,0.0,73,0.00,,,0.00,WeatherTracker,2013-02-14 10:23:00,
2013-02-14 05:28:00,32.5,24.5,29.69,NNW,331,1.0,0.0,72,0.00,,,0.00,WeatherTracker,2013-02-14 10:28:00,
2013-02-14 05:33:00,32.5,24.8,29.69,SW,236,0.0,0.0,73,0.00,,,0.00,WeatherTracker,2013-02-14 10:33:00,
2013-02-14 05:38:00,32.5,24.8,29.69,SW,236,0.0,0.0,73,0.00,,,0.00,WeatherTracker,2013-02-14 10:38:00,
2013-02-14 05:43:00,32.5,24.8,29.69,SW,236,0.0,0.0,73,0.00,,,0.00,WeatherTracker,2013-02-14 10:43:00,
2013-02-14 05:48:00,32.5,24.8,29.70,WSW,241,0.0,0.0,73,0.00,,,0.00,WeatherTracker,2013-02-14 10:48:00,
2013-02-14 05:53:00,32.4,24.4,29.70,SW,219,0.0,0.0,72,0.00,,,0.00,WeatherTracker,2013-02-14 10:53:00,
2013-02-14 05:58:00,32.4,24.4,29.70,NW,313,0.0,0.0,72,0.00,,,0.00,WeatherTracker,2013-02-14 10:58:00,
2013-02-14 06:03:00,32.3,24.3,29.71,NW,313,0.0,0.0,72,0.00,,,0.00,WeatherTracker,2013-02-14 11:03:00,
2013-02-14 06:08:00,32.2,24.2,29.71,NW,313,2.0,0.0,72,0.00,,,0.00,WeatherTracker,2013-02-14 11:08:00,
2013-02-14 06:13:00,32.1,23.8,29.71,NE,40,0.0,0.0,71,0.00,,,0.00,WeatherTracker,2013-02-14 11:13:00,
2013-02-14 06:18:00,32.0,23.3,29.71,NE,40,0.0,0.0,70,0.00,,,0.00,WeatherTracker,2013-02-14 11:18:00,
2013-02-14 06:23:00,31.9,23.2,29.71,NE,40,0.0,0.0,70,0.00,,,0.00,WeatherTracker,2013-02-14 11:23:00,
2013-02-14 06:28:00,31.8,23.1,29.71,NNE,13,0.0,0.0,70,0.00,,,0.00,WeatherTracker,2013-02-14 11:28:00,
2013-02-14 06:33:00,31.8,22.8,29.71,North,355,0.0,0.0,69,0.00,,,0.00,WeatherTracker,2013-02-14 11:33:00,
2013-02-14 06:38:00,31.8,22.5,29.72,NNW,345,0.0,0.0,68,0.00,,,0.00,WeatherTracker,2013-02-14 11:38:00,
2013-02-14 06:43:00,31.8,22.5,29.72,West,264,0.0,0.0,68,0.00,,,0.00,WeatherTracker,2013-02-14 11:43:00,
2013-02-14 06:48:00,31.8,22.8,29.72,West,264,0.0,0.0,69,0.00,,,0.00,WeatherTracker,2013-02-14 11:48:00,
2013-02-14 06:53:00,31.7,22.4,29.73,West,264,0.0,0.0,68,0.00,,,0.00,WeatherTracker,2013-02-14 11:53:00,
2013-02-14 06:58:00,31.6,22.3,29.73,West,264,0.0,0.0,68,0.00,,,0.00,WeatherTracker,2013-02-14 11:58:00,
2013-02-14 07:03:00,31.6,22.6,29.73,West,264,0.0,0.0,69,0.00,,,0.00,WeatherTracker,2013-02-14 12:03:00,
2013-02-14 07:08:00,31.5,22.5,29.73,West,264,0.0,0.0,69,0.00,,,0.00,WeatherTracker,2013-02-14 12:08:00,
2013-02-14 07:13:00,31.4,22.4,29.73,West,264,0.0,0.0,69,0.00,,,0.00,WeatherTracker,2013-02-14 12:13:00,
2013-02-14 07:19:00,31.3,22.7,29.74,West,264,0.0,0.0,70,0.00,,,0.00,WeatherTracker,2013-02-14 12:19:00,
2013-02-14 07:24:00,31.4,22.4,29.74,West,264,0.0,0.0,69,0.00,,,0.00,WeatherTracker,2013-02-14 12:24:00,
2013-02-14 07:29:00,31.5,22.9,29.75,West,264,0.0,0.0,70,0.00,,,0.00,WeatherTracker,2013-02-14 12:29:00,
2013-02-14 07:34:00,31.8,22.8,29.75,SW,215,0.0,0.0,69,0.00,,,0.00,WeatherTracker,2013-02-14 12:34:00,
2013-02-14 07:39:00,32.2,22.8,29.76,West,264,0.0,0.0,68,0.00,,,0.00,WeatherTracker,2013-02-14 12:39:00,
2013-02-14 07:44:00,32.5,23.1,29.76,West,264,0.0,0.0,68,0.00,,,0.00,WeatherTracker,2013-02-14 12:44:00,
2013-02-14 07:49:00,32.8,23.4,29.76,West,270,0.0,0.0,68,0.00,,,0.00,WeatherTracker,2013-02-14 12:49:00,
2013-02-14 07:54:00,33.2,23.4,29.76,NW,311,0.0,0.0,67,0.00,,,0.00,WeatherTracker,2013-02-14 12:54:00,
2013-02-14 07:59:00,33.4,23.3,29.77,NW,309,2.0,0.0,66,0.00,,,0.00,WeatherTracker,2013-02-14 12:59:00,
2013-02-14 08:04:00,33.5,23.0,29.77,West,267,0.0,0.0,65,0.00,,,0.00,WeatherTracker,2013-02-14 13:04:00,
2013-02-14 08:09:00,33.7,22.8,29.77,West,267,0.0,0.0,64,0.00,,,0.00,WeatherTracker,2013-02-14 13:09:00,
2013-02-14 08:14:00,33.9,23.4,29.77,West,271,0.0,0.0,65,0.00,,,0.00,WeatherTracker,2013-02-14 13:14:00,
2013-02-14 08:19:00,34.1,23.2,29.78,NW,310,0.0,0.0,64,0.00,,,0.00,WeatherTracker,2013-02-14 13:19:00,
2013-02-14 08:24:00,34.3,22.7,29.78,NW,310,0.0,0.0,62,0.00,,,0.00,WeatherTracker,2013-02-14 13:24:00,
2013-02-14 08:29:00,34.6,22.9,29.78,WNW,283,0.0,0.0,62,0.00,,,0.00,WeatherTracker,2013-02-14 13:29:00,
2013-02-14 08:34:00,34.9,23.2,29.78,WNW,284,0.0,0.0,62,0.00,,,0.00,WeatherTracker,2013-02-14 13:34:00,
2013-02-14 08:39:00,35.2,23.1,29.78,West,270,0.0,0.0,61,0.00,,,0.00,WeatherTracker,2013-02-14 13:39:00,
2013-02-14 08:44:00,35.6,22.7,29.78,East,88,2.0,0.0,59,0.01,,,0.01,WeatherTracker,2013-02-14 13:44:00,
2013-02-14 08:49:00,35.9,23.0,29.79,South,182,0.0,0.0,59,0.01,,,0.01,WeatherTracker,2013-02-14 13:49:00,
2013-02-14 08:54:00,36.1,23.2,29.79,West,276,0.0,0.0,59,0.01,,,0.01,WeatherTracker,2013-02-14 13:54:00,
2013-02-14 08:59:00,36.3,22.5,29.79,North,355,0.0,0.0,57,0.01,,,0.01,WeatherTracker,2013-02-14 13:59:00,
2013-02-14 09:04:00,36.5,23.1,29.80,WNW,300,0.0,0.0,58,0.01,,,0.01,WeatherTracker,2013-02-14 14:04:00,
2013-02-14 09:09:00,36.8,22.6,29.80,NNW,333,1.0,0.0,56,0.01,,,0.01,WeatherTracker,2013-02-14 14:09:00,
2013-02-14 09:14:00,37.0,22.4,29.80,West,281,1.0,0.0,55,0.01,,,0.01,WeatherTracker,2013-02-14 14:14:00,
2013-02-14 09:19:00,37.1,22.0,29.80,NNE,22,1.0,0.0,54,0.02,,,0.02,WeatherTracker,2013-02-14 14:19:00,
2013-02-14 09:24:00,37.4,22.7,29.81,North,10,0.0,0.0,55,0.02,,,0.02,WeatherTracker,2013-02-14 14:24:00,
2013-02-14 09:29:00,37.5,22.4,29.80,NW,315,0.0,0.0,54,0.02,,,0.02,WeatherTracker,2013-02-14 14:29:00,
2013-02-14 09:34:00,37.8,22.2,29.81,NNE,18,0.0,0.0,53,0.02,,,0.02,WeatherTracker,2013-02-14 14:34:00,
2013-02-14 09:40:00,38.0,21.5,29.81,NNE,14,3.0,0.0,51,0.02,,,0.02,WeatherTracker,2013-02-14 14:40:00,
2013-02-14 09:45:00,38.2,21.2,29.81,West,280,1.0,0.0,50,0.01,,,0.02,WeatherTracker,2013-02-14 14:45:00,
2013-02-14 09:50:00,38.3,21.8,29.81,NW,309,2.0,0.0,51,0.01,,,0.02,WeatherTracker,2013-02-14 14:50:00,
2013-02-14 09:55:00,38.3,22.2,29.81,North,5,1.0,0.0,52,0.01,,,0.02,WeatherTracker,2013-02-14 14:55:00,
2013-02-14 10:00:00,38.7,22.1,29.82,North,5,2.0,0.0,51,0.01,,,0.02,WeatherTracker,2013-02-14 15:00:00,
2013-02-14 10:05:00,38.9,22.3,29.81,West,271,0.0,0.0,51,0.01,,,0.02,WeatherTracker,2013-02-14 15:05:00,
2013-02-14 10:10:00,38.9,22.3,29.82,WSW,257,1.0,0.0,51,0.01,,,0.02,WeatherTracker,2013-02-14 15:10:00,
2013-02-14 10:15:00,38.9,22.8,29.82,NNW,331,0.0,0.0,52,0.01,,,0.02,WeatherTracker,2013-02-14 15:15:00,
2013-02-14 10:20:00,38.9,21.9,29.82,NE,46,2.0,0.0,50,0.00,,,0.02,WeatherTracker,2013-02-14 15:20:00,
2013-02-14 10:25:00,38.9,22.3,29.82,WNW,302,2.0,0.0,51,0.00,,,0.02,WeatherTracker,2013-02-14 15:25:00,
2013-02-14 10:30:00,39.0,22.0,29.82,West,275,1.0,0.0,50,0.00,,,0.02,WeatherTracker,2013-02-14 15:30:00,
2013-02-14 10:35:00,39.1,22.0,29.82,WSW,252,0.0,0.0,50,0.00,,,0.02,WeatherTracker,2013-02-14 15:35:00,
2013-02-14 10:40:00,39.2,22.1,29.82,West,280,2.0,0.0,50,0.01,,,0.03,WeatherTracker,2013-02-14 15:40:00,
2013-02-14 10:45:00,39.0,22.0,29.82,West,272,0.0,0.0,50,0.01,,,0.03,WeatherTracker,2013-02-14 15:45:00,
2013-02-14 10:50:00,39.4,22.3,29.82,West,281,2.0,0.0,50,0.01,,,0.03,WeatherTracker,2013-02-14 15:50:00,
2013-02-14 10:55:00,39.3,22.2,29.82,West,263,0.0,0.0,50,0.01,,,0.03,WeatherTracker,2013-02-14 15:55:00,
2013-02-14 11:00:00,39.7,22.1,29.82,ESE,111,0.0,0.0,49,0.01,,,0.03,WeatherTracker,2013-02-14 16:00:00,
2013-02-14 11:05:00,40.1,22.0,29.82,WNW,302,2.0,0.0,48,0.01,,,0.03,WeatherTracker,2013-02-14 16:05:00,
2013-02-14 11:10:00,40.1,21.5,29.83,SW,233,1.0,0.0,47,0.01,,,0.03,WeatherTracker,2013-02-14 16:10:00,
2013-02-14 11:15:00,40.2,21.6,29.82,NW,323,3.0,0.0,47,0.01,,,0.03,WeatherTracker,2013-02-14 16:15:00,
2013-02-14 11:20:00,40.3,22.2,29.83,West,273,0.0,0.0,48,0.02,,,0.04,WeatherTracker,2013-02-14 16:20:00,
2013-02-14 11:25:00,40.2,22.6,29.83,NNW,331,0.0,0.0,49,0.02,,,0.04,WeatherTracker,2013-02-14 16:25:00,
2013-02-14 11:30:00,40.5,21.9,29.83,NW,304,0.0,0.0,47,0.02,,,0.04,WeatherTracker,2013-02-14 16:30:00,
2013-02-14 11:36:00,40.7,21.5,29.83,North,355,1.0,0.0,46,0.02,,,0.04,WeatherTracker,2013-02-14 16:36:00,
2013-02-14 11:41:00,40.7,21.5,29.83,West,267,2.0,0.0,46,0.01,,,0.04,WeatherTracker,2013-02-14 16:41:00,
2013-02-14 11:46:00,40.4,21.8,29.83,SW,221,1.0,0.0,47,0.01,,,0.04,WeatherTracker,2013-02-14 16:46:00,
2013-02-14 11:51:00,40.4,22.3,29.83,WSW,238,2.0,0.0,48,0.01,,,0.04,WeatherTracker,2013-02-14 16:51:00,
2013-02-14 11:56:00,40.5,22.4,29.83,NW,320,0.0,0.0,48,0.01,,,0.04,WeatherTracker,2013-02-14 16:56:00,
2013-02-14 12:01:00,40.7,21.5,29.83,East,94,0.0,0.0,46,0.01,,,0.04,WeatherTracker,2013-02-14 17:01:00,
2013-02-14 12:06:00,41.0,22.8,29.83,North,11,1.0,0.0,48,0.01,,,0.04,WeatherTracker,2013-02-14 17:06:00,
2013-02-14 12:11:00,41.0,21.8,29.82,NW,321,1.0,0.0,46,0.01,,,0.04,WeatherTracker,2013-02-14 17:11:00,
2013-02-14 12:16:00,41.0,21.8,29.83,West,281,0.0,0.0,46,0.01,,,0.04,WeatherTracker,2013-02-14 17:16:00,
2013-02-14 12:21:00,41.1,21.9,29.83,SSW,209,3.0,0.0,46,0.00,,,0.04,WeatherTracker,2013-02-14 17:21:00,
2013-02-14 12:26:00,40.9,21.7,29.83,WSW,248,2.0,0.0,46,0.00,,,0.04,WeatherTracker,2013-02-14 17:26:00,
2013-02-14 12:31:00,40.5,20.8,29.83,West,269,0.0,0.0,45,0.00,,,0.04,WeatherTracker,2013-02-14 17:31:00,
2013-02-14 12:36:00,40.6,22.5,29.83,West,279,1.0,0.0,48,0.00,,,0.04,WeatherTracker,2013-02-14 17:36:00,
2013-02-14 12:41:00,41.0,22.3,29.83,North,355,0.0,0.0,47,0.00,,,0.04,WeatherTracker,2013-02-14 17:41:00,
2013-02-14 12:46:00,41.5,23.3,29.82,NNE,15,1.0,0.0,48,0.00,,,0.04,WeatherTracker,2013-02-14 17:46:00,
2013-02-14 12:51:00,41.6,23.9,29.83,West,280,1.0,0.0,49,0.00,,,0.04,WeatherTracker,2013-02-14 17:51:00,
2013-02-14 12:56:00,41.9,23.7,29.83,ESE,104,0.0,0.0,48,0.00,,,0.04,WeatherTracker,2013-02-14 17:56:00,
2013-02-14 13:01:00,42.2,22.4,29.83,NNW,336,0.0,0.0,45,0.00,,,0.04,WeatherTracker,2013-02-14 18:01:00,
2013-02-14 13:06:00,42.0,21.7,29.82,West,277,0.0,0.0,44,0.00,,,0.04,WeatherTracker,2013-02-14 18:06:00,
2013-02-14 13:11:00,42.0,23.2,29.83,NNW,337,0.0,0.0,47,0.00,,,0.04,WeatherTracker,2013-02-14 18:11:00,
2013-02-14 13:16:00,41.9,22.1,29.83,ENE,62,0.0,0.0,45,0.00,,,0.04,WeatherTracker,2013-02-14 18:16:00,
2013-02-14 13:21:00,41.8,22.0,29.83,WSW,257,0.0,0.0,45,0.00,,,0.04,WeatherTracker,2013-02-14 18:21:00,
2013-02-14 13:26:00,41.8,22.0,29.83,East,90,0.0,0.0,45,0.00,,,0.04,WeatherTracker,2013-02-14 18:26:00,
2013-02-14 13:31:00,42.2,22.4,29.83,NW,322,0.0,0.0,45,0.00,,,0.04,WeatherTracker,2013-02-14 18:31:00,
2013-02-14 13:37:00,42.4,22.0,29.82,NE,38,1.0,0.0,44,0.00,,,0.04,WeatherTracker,2013-02-14 18:37:00,
2013-02-14 13:42:00,42.4,23.6,29.83,WSW,257,1.0,0.0,47,0.00,,,0.04,WeatherTracker,2013-02-14 18:42:00,
2013-02-14 13:47:00,42.7,21.8,29.82,SE,134,2.0,0.0,43,0.00,,,0.04,WeatherTracker,2013-02-14 18:47:00,
2013-02-14 13:52:00,42.4,22.0,29.82,SE,143,0.0,0.0,44,0.00,,,0.04,WeatherTracker,2013-02-14 18:52:00,
2013-02-14 13:57:00,42.5,22.1,29.82,South,176,0.0,0.0,44,0.00,,,0.04,WeatherTracker,2013-02-14 18:57:00,
2013-02-14 14:02:00,42.4,22.0,29.82,SSE,163,1.0,0.0,44,0.00,,,0.04,WeatherTracker,2013-02-14 19:02:00,
2013-02-14 14:07:00,42.3,21.4,29.82,West,261,1.0,0.0,43,0.00,,,0.04,WeatherTracker,2013-02-14 19:07:00,
2013-02-14 14:12:00,42.2,21.3,29.82,West,265,0.0,0.0,43,0.01,,,0.05,WeatherTracker,2013-02-14 19:12:00,
2013-02-14 14:17:00,42.5,23.2,29.83,SW,229,2.0,0.0,46,0.01,,,0.05,WeatherTracker,2013-02-14 19:17:00,
2013-02-14 14:22:00,42.6,21.7,29.83,WNW,283,2.0,0.0,43,0.01,,,0.05,WeatherTracker,2013-02-14 19:22:00,
2013-02-14 14:27:00,42.5,21.6,29.83,WNW,294,0.0,0.0,43,0.01,,,0.05,WeatherTracker,2013-02-14 19:27:00,
2013-02-14 14:32:00,42.6,22.2,29.83,WNW,300,0.0,0.0,44,0.01,,,0.05,WeatherTracker,2013-02-14 19:32:00,
2013-02-14 14:37:00,42.6,21.7,29.83,NNW,335,0.0,0.0,43,0.01,,,0.05,WeatherTracker,2013-02-14 19:37:00,
2013-02-14 14:42:00,42.6,21.7,29.83,North,5,0.0,0.0,43,0.01,,,0.05,WeatherTracker,2013-02-14 19:42:00,
2013-02-14 14:47:00,42.6,22.2,29.83,North,5,0.0,0.0,44,0.01,,,0.05,WeatherTracker,2013-02-14 19:47:00,
2013-02-14 14:52:00,42.6,21.1,29.83,SSE,147,0.0,0.0,42,0.01,,,0.05,WeatherTracker,2013-02-14 19:52:00,
2013-02-14 14:57:00,42.6,21.7,29.83,SSE,167,1.0,0.0,43,0.01,,,0.05,WeatherTracker,2013-02-14 19:57:00,
2013-02-14 15:02:00,42.6,21.7,29.83,South,174,2.0,0.0,43,0.01,,,0.05,WeatherTracker,2013-02-14 20:02:00,
2013-02-14 15:07:00,42.6,21.7,29.83,South,173,0.0,0.0,43,0.01,,,0.05,WeatherTracker,2013-02-14 20:07:00,
2013-02-14 15:12:00,42.8,21.3,29.83,South,172,0.0,0.0,42,0.00,,,0.05,WeatherTracker,2013-02-14 20:12:00,
2013-02-14 15:17:00,42.7,21.8,29.84,SSE,155,0.0,0.0,43,0.01,,,0.06,WeatherTracker,2013-02-14 20:17:00,
2013-02-14 15:22:00,42.7,21.2,29.84,WSW,255,1.0,0.0,42,0.01,,,0.06,WeatherTracker,2013-02-14 20:22:00,
2013-02-14 15:28:00,42.8,21.9,29.84,WSW,243,3.0,0.0,43,0.01,,,0.06,WeatherTracker,2013-02-14 20:28:00,
2013-02-14 15:33:00,43.0,21.5,29.84,South,191,0.0,0.0,42,0.01,,,0.06,WeatherTracker,2013-02-14 20:33:00,
2013-02-14 15:38:00,43.1,21.6,29.85,WSW,244,1.0,0.0,42,0.01,,,0.06,WeatherTracker,2013-02-14 20:38:00,
2013-02-14 15:43:00,43.2,21.7,29.85,WSW,256,0.0,0.0,42,0.01,,,0.06,WeatherTracker,2013-02-14 20:43:00,
2013-02-14 15:48:00,43.2,22.2,29.85,SSE,151,2.0,0.0,43,0.01,,,0.06,WeatherTracker,2013-02-14 20:48:00,
2013-02-14 15:53:00,43.4,21.9,29.85,SE,145,1.0,0.0,42,0.01,,,0.06,WeatherTracker,2013-02-14 20:53:00,
2013-02-14 15:58:00,43.7,22.1,29.85,South,173,0.0,0.0,42,0.01,,,0.06,WeatherTracker,2013-02-14 20:58:00,
2013-02-14 16:03:00,43.8,22.8,29.84,South,173,0.0,0.0,43,0.01,,,0.06,WeatherTracker,2013-02-14 21:03:00,
2013-02-14 16:08:00,43.7,21.6,29.85,South,170,0.0,0.0,41,0.01,,,0.06,WeatherTracker,2013-02-14 21:08:00,
2013-02-14 16:13:00,43.8,21.6,29.85,SSE,167,0.0,0.0,41,0.01,,,0.06,WeatherTracker,2013-02-14 21:13:00,
2013-02-14 16:18:00,43.7,21.6,29.85,SSE,156,2.0,0.0,41,0.00,,,0.06,WeatherTracker,2013-02-14 21:18:00,
2013-02-14 16:23:00,43.6,22.0,29.85,WSW,244,0.0,0.0,42,0.00,,,0.06,WeatherTracker,2013-02-14 21:23:00,
2013-02-14 16:28:00,43.5,22.5,29.85,West,275,0.0,0.0,43,0.00,,,0.06,WeatherTracker,2013-02-14 21:28:00,
2013-02-14 16:33:00,43.3,22.3,29.85,WSW,256,0.0,0.0,43,0.00,,,0.06,WeatherTracker,2013-02-14 21:33:00,
2013-02-14 16:38:00,43.1,22.7,29.86,WSW,256,0.0,0.0,44,0.00,,,0.06,WeatherTracker,2013-02-14 21:38:00,
2013-02-14 16:43:00,42.7,22.3,29.86,WSW,256,0.0,0.0,44,0.00,,,0.06,WeatherTracker,2013-02-14 21:43:00,
2013-02-14 16:48:00,42.5,21.6,29.87,SSE,157,0.0,0.0,43,0.00,,,0.06,WeatherTracker,2013-02-14 21:48:00,
2013-02-14 16:53:00,42.3,22.0,29.87,SSE,157,0.0,0.0,44,0.00,,,0.06,WeatherTracker,2013-02-14 21:53:00,
2013-02-14 16:58:00,42.1,21.8,29.87,SSE,157,0.0,0.0,44,0.00,,,0.06,WeatherTracker,2013-02-14 21:58:00,
2013-02-14 17:03:00,41.8,21.5,29.87,SSE,157,0.0,0.0,44,0.00,,,0.06,WeatherTracker,2013-02-14 22:03:00,
2013-02-14 17:08:00,41.5,21.8,29.87,SSE,157,0.0,0.0,45,0.00,,,0.06,WeatherTracker,2013-02-14 22:08:00,
2013-02-14 17:14:00,41.2,22.5,29.87,SSE,157,0.0,0.0,47,0.00,,,0.06,WeatherTracker,2013-02-14 22:14:00,
2013-02-14 17:19:00,40.8,23.1,29.87,SSE,157,0.0,0.0,49,0.00,,,0.06,WeatherTracker,2013-02-14 22:19:00,
2013-02-14 17:24:00,40.5,22.4,29.88,SSE,157,0.0,0.0,48,0.00,,,0.06,WeatherTracker,2013-02-14 22:24:00,
2013-02-14 17:29:00,40.0,22.4,29.88,SSE,157,0.0,0.0,49,0.00,,,0.06,WeatherTracker,2013-02-14 22:29:00,
2013-02-14 17:34:00,39.5,21.9,29.88,SSE,157,0.0,0.0,49,0.00,,,0.06,WeatherTracker,2013-02-14 22:34:00,
2013-02-14 17:39:00,39.0,22.0,29.88,SSE,157,0.0,0.0,50,0.00,,,0.06,WeatherTracker,2013-02-14 22:39:00,
2013-02-14 17:44:00,38.5,23.8,29.88,SSE,157,0.0,0.0,55,0.00,,,0.06,WeatherTracker,2013-02-14 22:44:00,
2013-02-14 17:49:00,38.0,24.1,29.89,SSE,157,0.0,0.0,57,0.00,,,0.06,WeatherTracker,2013-02-14 22:49:00,
2013-02-14 17:54:00,37.5,23.7,29.89,SSE,157,0.0,0.0,57,0.00,,,0.06,WeatherTracker,2013-02-14 22:54:00,
2013-02-14 17:59:00,36.9,22.7,29.89,SSE,157,0.0,0.0,56,0.00,,,0.06,WeatherTracker,2013-02-14 22:59:00,
2013-02-14 18:04:00,36.6,22.8,29.90,SSE,163,0.0,0.0,57,0.00,,,0.06,WeatherTracker,2013-02-14 23:04:00,
2013-02-14 18:09:00,36.8,23.0,29.90,SSE,163,0.0,0.0,57,0.00,,,0.06,WeatherTracker,2013-02-14 23:09:00,
2013-02-14 18:14:00,36.8,23.4,29.90,SSE,163,0.0,0.0,58,0.00,,,0.06,WeatherTracker,2013-02-14 23:14:00,
2013-02-14 18:19:00,36.8,23.4,29.91,SSE,163,0.0,0.0,58,0.00,,,0.06,WeatherTracker,2013-02-14 23:19:00,
2013-02-14 18:24:00,36.7,23.3,29.91,SSE,163,2.0,0.0,58,0.00,,,0.06,WeatherTracker,2013-02-14 23:24:00,
2013-02-14 18:29:00,36.8,23.4,29.91,SSE,163,0.0,0.0,58,0.00,,,0.06,WeatherTracker,2013-02-14 23:29:00,
2013-02-14 18:34:00,36.8,23.8,29.91,SSE,163,0.0,0.0,59,0.00,,,0.06,WeatherTracker,2013-02-14 23:34:00,
2013-02-14 18:39:00,36.7,23.7,29.91,SSE,163,0.0,0.0,59,0.00,,,0.06,WeatherTracker,2013-02-14 23:39:00,
2013-02-14 18:44:00,36.5,24.0,29.91,South,173,1.0,0.0,60,0.00,,,0.06,WeatherTracker,2013-02-14 23:44:00,
2013-02-14 18:49:00,36.5,24.7,29.91,South,173,0.0,0.0,62,0.00,,,0.06,WeatherTracker,2013-02-14 23:49:00,
2013-02-14 18:54:00,36.4,24.6,29.91,SSE,164,2.0,0.0,62,0.00,,,0.06,WeatherTracker,2013-02-14 23:54:00,
2013-02-14 18:59:00,36.4,24.6,29.91,South,173,2.0,0.0,62,0.00,,,0.06,WeatherTracker,2013-02-14 23:59:00,
2013-02-14 19:04:00,36.4,25.0,29.91,South,173,0.0,0.0,63,0.00,,,0.06,WeatherTracker,2013-02-15 00:04:00,
2013-02-14 19:09:00,36.2,24.8,29.91,South,171,1.0,0.0,63,0.00,,,0.06,WeatherTracker,2013-02-15 00:09:00,
2013-02-14 19:14:00,36.2,24.8,29.91,South,171,2.0,0.0,63,0.00,,,0.06,WeatherTracker,2013-02-15 00:14:00,
2013-02-14 19:20:00,36.1,24.7,29.91,South,171,0.0,0.0,63,0.00,,,0.06,WeatherTracker,2013-02-15 00:20:00,
2013-02-14 19:25:00,36.0,24.6,29.91,SE,143,0.0,0.0,63,0.00,,,0.06,WeatherTracker,2013-02-15 00:25:00,
2013-02-14 19:30:00,35.9,24.9,29.90,SSE,148,1.0,0.0,64,0.00,,,0.06,WeatherTracker,2013-02-15 00:30:00,
2013-02-14 19:35:00,35.8,24.8,29.91,SSE,168,0.0,0.0,64,0.00,,,0.06,WeatherTracker,2013-02-15 00:35:00,
2013-02-14 19:40:00,35.6,25.0,29.91,South,169,2.0,0.0,65,0.00,,,0.06,WeatherTracker,2013-02-15 00:40:00,
2013-02-14 19:45:00,35.5,24.9,29.91,West,273,1.0,0.0,65,0.00,,,0.06,WeatherTracker,2013-02-15 00:45:00,
2013-02-14 19:50:00,35.4,24.8,29.91,South,170,0.0,0.0,65,0.00,,,0.06,WeatherTracker,2013-02-15 00:50:00,
2013-02-14 19:55:00,35.3,25.1,29.91,South,170,0.0,0.0,66,0.00,,,0.06,WeatherTracker,2013-02-15 00:55:00,
2013-02-14 20:00:00,35.3,25.1,29.92,South,184,0.0,0.0,66,0.00,,,0.06,WeatherTracker,2013-02-15 01:00:00,
2013-02-14 20:05:00,35.2,25.4,29.92,West,277,0.0,0.0,67,0.00,,,0.06,WeatherTracker,2013-02-15 01:05:00,
2013-02-14 20:10:00,35.2,25.4,29.92,WSW,250,0.0,0.0,67,0.00,,,0.06,WeatherTracker,2013-02-15 01:10:00,
2013-02-14 20:15:00,35.0,25.2,29.92,SSE,148,0.0,0.0,67,0.00,,,0.06,WeatherTracker,2013-02-15 01:15:00,
2013-02-14 20:20:00,35.0,25.5,29.92,WSW,257,0.0,0.0,68,0.00,,,0.06,WeatherTracker,2013-02-15 01:20:00,
2013-02-14 20:25:00,34.9,25.4,29.92,WSW,242,0.0,0.0,68,0.00,,,0.06,WeatherTracker,2013-02-15 01:25:00,
2013-02-14 20:30:00,34.8,25.3,29.92,WNW,300,0.0,0.0,68,0.00,,,0.06,WeatherTracker,2013-02-15 01:30:00,
2013-02-14 20:35:00,34.6,25.1,29.92,SW,234,1.0,0.0,68,0.00,,,0.06,WeatherTracker,2013-02-15 01:35:00,
2013-02-14 20:40:00,34.5,25.4,29.92,SSE,161,0.0,0.0,69,0.00,,,0.06,WeatherTracker,2013-02-15 01:40:00,
2013-02-14 20:45:00,34.4,25.3,29.92,WSW,241,0.0,0.0,69,0.00,,,0.06,WeatherTracker,2013-02-15 01:45:00,
2013-02-14 20:50:00,34.3,25.2,29.92,WSW,246,0.0,0.0,69,0.00,,,0.06,WeatherTracker,2013-02-15 01:50:00,
2013-02-14 20:55:00,34.2,25.1,29.93,WSW,239,0.0,0.0,69,0.00,,,0.06,WeatherTracker,2013-02-15 01:55:00,
2013-02-14 21:00:00,34.1,25.0,29.92,WSW,239,0.0,0.0,69,0.00,,,0.06,WeatherTracker,2013-02-15 02:00:00,
2013-02-14 21:05:00,34.0,24.9,29.92,WSW,239,0.0,0.0,69,0.00,,,0.06,WeatherTracker,2013-02-15 02:05:00,
2013-02-14 21:10:00,33.9,24.8,29.92,WSW,239,0.0,0.0,69,0.00,,,0.06,WeatherTracker,2013-02-15 02:10:00,
2013-02-14 21:15:00,33.7,24.6,29.92,WSW,248,0.0,0.0,69,0.00,,,0.06,WeatherTracker,2013-02-15 02:15:00,
2013-02-14 21:20:00,33.7,25.0,29.92,WSW,248,0.0,0.0,70,0.00,,,0.06,WeatherTracker,2013-02-15 02:20:00,
2013-02-14 21:25:00,33.6,24.5,29.92,WSW,248,0.0,0.0,69,0.00,,,0.06,WeatherTracker,2013-02-15 02:25:00,
2013-02-14 21:31:00,33.5,24.8,29.92,WSW,248,0.0,0.0,70,0.00,,,0.06,WeatherTracker,2013-02-15 02:31:00,
2013-02-14 21:36:00,33.4,24.7,29.92,WSW,248,0.0,0.0,70,0.00,,,0.06,WeatherTracker,2013-02-15 02:36:00,
2013-02-14 21:41:00,33.4,24.7,29.92,WSW,248,0.0,0.0,70,0.00,,,0.06,WeatherTracker,2013-02-15 02:41:00,
2013-02-14 21:46:00,33.2,24.5,29.92,WSW,248,1.0,0.0,70,0.00,,,0.06,WeatherTracker,2013-02-15 02:46:00,
2013-02-14 21:51:00,33.1,24.7,29.92,WSW,240,0.0,0.0,71,0.00,,,0.06,WeatherTracker,2013-02-15 02:51:00,
2013-02-14 21:56:00,32.9,24.2,29.92,WSW,240,0.0,0.0,70,0.00,,,0.06,WeatherTracker,2013-02-15 02:56:00,
2013-02-14 22:01:00,32.8,24.4,29.92,WSW,240,0.0,0.0,71,0.00,,,0.06,WeatherTracker,2013-02-15 03:01:00,
2013-02-14 22:06:00,32.7,24.4,29.92,WSW,240,0.0,0.0,71,0.00,,,0.06,WeatherTracker,2013-02-15 03:06:00,
2013-02-14 22:11:00,32.6,24.3,29.92,WSW,240,0.0,0.0,71,0.00,,,0.06,WeatherTracker,2013-02-15 03:11:00,
2013-02-14 22:16:00,32.4,24.1,29.92,WSW,240,0.0,0.0,71,0.00,,,0.06,WeatherTracker,2013-02-15 03:16:00,
2013-02-14 22:21:00,32.3,24.3,29.92,WSW,240,0.0,0.0,72,0.00,,,0.06,WeatherTracker,2013-02-15 03:21:00,
2013-02-14 22:26:00,32.2,24.2,29.92,SSW,211,0.0,0.0,72,0.00,,,0.06,WeatherTracker,2013-02-15 03:26:00,
2013-02-14 22:31:00,32.1,24.1,29.92,SSW,197,1.0,0.0,72,0.00,,,0.06,WeatherTracker,2013-02-15 03:31:00,
2013-02-14 22:36:00,32.3,24.0,29.92,SE,131,0.0,0.0,71,0.00,,,0.06,WeatherTracker,2013-02-15 03:36:00,
2013-02-14 22:41:00,32.4,24.1,29.93,SSE,153,0.0,0.0,71,0.00,,,0.06,WeatherTracker,2013-02-15 03:41:00,
2013-02-14 22:46:00,32.3,24.0,29.93,SSE,153,0.0,0.0,71,0.00,,,0.06,WeatherTracker,2013-02-15 03:46:00,
2013-02-14 22:51:00,32.0,24.3,29.93,SSE,153,0.0,0.0,73,0.00,,,0.06,WeatherTracker,2013-02-15 03:51:00,
2013-02-14 22:56:00,31.6,24.0,29.93,SSE,153,0.0,0.0,73,0.00,,,0.06,WeatherTracker,2013-02-15 03:56:00,
2013-02-14 23:01:00,31.4,24.1,29.94,West,266,0.0,0.0,74,0.00,,,0.06,WeatherTracker,2013-02-15 04:01:00,
2013-02-14 23:06:00,31.4,24.1,29.93,West,266,0.0,0.0,74,0.00,,,0.06,WeatherTracker,2013-02-15 04:06:00,
2013-02-14 23:11:00,31.6,24.0,29.93,West,266,0.0,0.0,73,0.00,,,0.06,WeatherTracker,2013-02-15 04:11:00,
2013-02-14 23:16:00,31.7,24.1,29.93,West,266,0.0,0.0,73,0.00,,,0.06,WeatherTracker,2013-02-15 04:16:00,
2013-02-14 23:21:00,31.9,24.2,29.93,West,266,0.0,0.0,73,0.00,,,0.06,WeatherTracker,2013-02-15 04:21:00,
2013-02-14 23:26:00,31.9,24.2,29.93,West,266,0.0,0.0,73,0.00,,,0.06,WeatherTracker,2013-02-15 04:26:00,
2013-02-14 23:32:00,31.8,24.1,29.94,WSW,248,0.0,0.0,73,0.00,,,0.06,WeatherTracker,2013-02-15 04:32:00,
2013-02-14 23:37:00,31.8,24.1,29.93,WSW,248,0.0,0.0,73,0.00,,,0.06,WeatherTracker,2013-02-15 04:37:00,
2013-02-14 23:42:00,31.8,24.1,29.93,WSW,248,0.0,0.0,73,0.00,,,0.06,WeatherTracker,2013-02-15 04:42:00,
2013-02-14 23:47:00,31.8,24.1,29.93,WSW,248,0.0,0.0,73,0.00,,,0.06,WeatherTracker,2013-02-15 04:47:00,
2013-02-14 23:52:00,31.9,24.6,29.93,WSW,248,0.0,0.0,74,0.00,,,0.06,WeatherTracker,2013-02-15 04:52:00,
2013-02-14 23:57:00,31.9,24.2,29.93,WSW,245,0.0,0.0,73,0.00,,,0.06,WeatherTracker,2013-02-15 04:57:00,